createdAt,value
2019-04-10T00:01:23.545Z,11.73
2019-04-10T00:03:52.532Z,12.63
2019-04-10T00:06:21.697Z,12.95
2019-04-10T00:08:50.625Z,13.20
2019-04-10T00:11:19.374Z,12.75
2019-04-10T00:13:49.037Z,13.05
2019-04-10T00:16:18.142Z,12.45
2019-04-10T00:18:47.008Z,14.20
2019-04-10T00:21:15.797Z,13.43
2019-04-10T00:23:44.462Z,13.32
2019-04-10T00:26:13.248Z,14.18
2019-04-10T00:28:41.989Z,13.53
2019-04-10T00:31:10.743Z,14.75
2019-04-10T00:33:39.506Z,14.47
2019-04-10T00:36:08.360Z,14.07
2019-04-10T00:38:37.975Z,15.03
2019-04-10T00:41:06.607Z,17.32
2019-04-10T00:43:35.363Z,17.87
2019-04-10T00:46:04.134Z,19.90
2019-04-10T00:48:32.905Z,16.50
2019-04-10T00:51:01.591Z,16.97
2019-04-10T00:53:30.350Z,16.27
2019-04-10T00:56:01.993Z,18.25
2019-04-10T00:58:30.784Z,18.70
2019-04-10T01:00:59.546Z,18.52
2019-04-10T01:03:43.728Z,19.10
2019-04-10T01:06:13.686Z,18.70
2019-04-10T01:08:42.766Z,19.82
2019-04-10T01:11:11.756Z,19.35
2019-04-10T01:13:41.129Z,19.50
2019-04-10T01:16:09.903Z,19.02
2019-04-10T01:18:39.511Z,19.15
2019-04-10T01:21:08.367Z,19.75
2019-04-10T01:23:38.044Z,19.77
2019-04-10T01:26:07.292Z,20.02
2019-04-10T01:28:36.713Z,21.23
2019-04-10T01:31:06.646Z,21.10
2019-04-10T01:33:36.730Z,22.65
2019-04-10T01:36:05.546Z,24.47
2019-04-10T01:38:34.307Z,23.20
2019-04-10T01:41:03.600Z,23.50
2019-04-10T01:43:32.980Z,23.10
2019-04-10T01:46:02.082Z,24.47
2019-04-10T01:48:30.760Z,24.98
2019-04-10T01:50:59.441Z,25.72
2019-04-10T01:53:28.094Z,28.00
2019-04-10T01:55:57.605Z,25.95
2019-04-10T01:58:27.281Z,26.40
2019-04-10T02:00:57.710Z,27.37
2019-04-10T02:03:26.386Z,30.30
2019-04-10T02:05:55.151Z,28.00
2019-04-10T02:08:23.837Z,28.57
2019-04-10T02:10:52.588Z,29.60
2019-04-10T02:13:21.458Z,28.50
2019-04-10T02:15:50.292Z,29.45
2019-04-10T02:18:19.353Z,27.82
2019-04-10T02:20:48.109Z,28.80
2019-04-10T02:23:16.867Z,29.92
2019-04-10T02:25:45.618Z,29.87
2019-04-10T02:28:15.078Z,27.98
2019-04-10T02:30:43.951Z,27.58
2019-04-10T02:33:13.928Z,29.95
2019-04-10T02:35:43.513Z,30.15
2019-04-10T02:38:30.679Z,30.08
2019-04-10T02:40:43.391Z,28.38
2019-04-10T02:43:13.934Z,27.50
2019-04-10T02:45:44.482Z,28.40
2019-04-10T02:48:13.061Z,29.00
2019-04-10T02:50:43.024Z,30.02
2019-04-10T02:53:13.103Z,31.17
2019-04-10T02:55:43.154Z,32.80
2019-04-10T02:58:12.082Z,30.55
2019-04-10T03:00:42.158Z,30.32
2019-04-10T03:03:12.011Z,33.10
2019-04-10T03:05:42.568Z,30.05
2019-04-10T03:08:13.017Z,30.90
2019-04-10T03:10:48.542Z,31.80
2019-04-10T03:13:13.738Z,30.23
2019-04-10T03:15:43.415Z,29.60
2019-04-10T03:18:12.741Z,28.47
2019-04-10T03:20:42.625Z,31.30
2019-04-10T03:23:11.590Z,28.12
2019-04-10T03:25:41.400Z,26.80
2019-04-10T03:28:11.086Z,30.27
2019-04-10T03:30:41.550Z,28.98
2019-04-10T03:33:17.096Z,30.32
2019-04-10T03:35:45.006Z,28.90
2019-04-10T03:38:14.669Z,30.00
2019-04-10T03:40:43.733Z,28.83
2019-04-10T03:43:12.442Z,30.62
2019-04-10T03:45:41.209Z,29.80
2019-04-10T03:48:09.887Z,30.65
2019-04-10T03:50:39.579Z,29.12
2019-04-10T03:53:08.402Z,29.42
2019-04-10T03:55:37.167Z,32.23
2019-04-10T03:58:05.913Z,32.10
2019-04-10T04:00:34.602Z,30.97
2019-04-10T04:03:04.197Z,33.02
2019-04-10T04:05:33.043Z,34.80
2019-04-10T04:08:01.723Z,34.18
2019-04-10T04:10:30.782Z,33.25
2019-04-10T04:13:00.193Z,32.95
2019-04-10T04:15:30.226Z,31.65
2019-04-10T04:17:58.924Z,30.85
2019-04-10T04:20:28.618Z,29.87
2019-04-10T04:22:57.400Z,31.17
2019-04-10T04:25:26.145Z,32.45
2019-04-10T04:27:54.776Z,31.85
2019-04-10T04:30:24.585Z,30.48
2019-04-10T04:32:53.920Z,31.05
2019-04-10T04:35:22.707Z,30.15
2019-04-10T04:37:52.633Z,30.92
2019-04-10T04:40:21.759Z,30.17
2019-04-10T04:42:51.388Z,31.87
2019-04-10T04:45:20.198Z,29.12
2019-04-10T04:47:48.820Z,26.93
2019-04-10T04:50:17.817Z,26.95
2019-04-10T04:52:46.629Z,24.15
2019-04-10T04:55:15.309Z,26.20
2019-04-10T04:57:44.962Z,25.02
2019-04-10T05:00:15.226Z,23.50
2019-04-10T05:02:44.781Z,23.77
2019-04-10T05:05:14.325Z,25.90
2019-04-10T05:07:54.105Z,23.73
2019-04-10T05:10:13.529Z,21.20
2019-04-10T05:12:43.534Z,21.05
2019-04-10T05:15:12.934Z,20.48
2019-04-10T05:17:41.738Z,20.82
2019-04-10T05:20:11.195Z,16.97
2019-04-10T05:22:39.887Z,18.35
2019-04-10T05:25:09.033Z,18.67
2019-04-10T05:27:37.734Z,16.15
2019-04-10T05:30:08.491Z,17.90
2019-04-10T05:32:37.554Z,18.35
2019-04-10T05:35:08.558Z,19.25
2019-04-10T05:37:40.152Z,17.65
2019-04-10T05:40:09.802Z,19.15
2019-04-10T05:42:39.416Z,18.92
2019-04-10T05:45:10.867Z,20.02
2019-04-10T05:47:39.698Z,17.57
2019-04-10T05:50:08.973Z,21.33
2019-04-10T05:52:37.690Z,19.30
2019-04-10T05:55:07.081Z,18.82
2019-04-10T05:57:35.719Z,19.42
2019-04-10T06:00:10.397Z,19.82
2019-04-10T06:02:39.829Z,19.50
2019-04-10T06:05:09.757Z,19.00
2019-04-10T06:07:39.249Z,18.95
2019-04-10T06:10:10.251Z,19.77
2019-04-10T06:12:38.635Z,19.77
2019-04-10T06:15:08.002Z,19.95
2019-04-10T06:17:36.700Z,18.90
2019-04-10T06:20:07.137Z,21.25
2019-04-10T06:22:36.870Z,21.52
2019-04-10T06:25:08.546Z,18.98
2019-04-10T06:27:36.810Z,21.05
2019-04-10T06:30:09.961Z,21.40
2019-04-10T06:32:39.657Z,21.10
2019-04-10T06:35:08.906Z,23.00
2019-04-10T06:37:38.029Z,22.73
2019-04-10T06:40:14.235Z,23.85
2019-04-10T06:42:46.611Z,24.05
2019-04-10T06:45:09.318Z,23.85
2019-04-10T06:47:38.284Z,24.75
2019-04-10T06:50:07.595Z,24.12
2019-04-10T06:52:36.353Z,22.93
2019-04-10T06:55:06.312Z,24.80
2019-04-10T06:57:47.647Z,23.30
2019-04-10T07:00:12.209Z,25.40
2019-04-10T07:02:38.948Z,26.97
2019-04-10T07:05:10.440Z,27.20
2019-04-10T07:07:49.617Z,26.42
2019-04-10T07:10:20.214Z,25.60
2019-04-10T07:12:39.733Z,24.57
2019-04-10T07:15:08.936Z,25.37
2019-04-10T07:17:41.860Z,25.80
2019-04-10T07:20:12.068Z,24.43
2019-04-10T07:22:46.582Z,24.77
2019-04-10T07:25:12.851Z,23.62
2019-04-10T07:27:41.922Z,24.90
2019-04-10T07:30:11.905Z,24.43
2019-04-10T07:32:44.211Z,25.50
2019-04-10T07:35:13.945Z,23.87
2019-04-10T07:37:42.437Z,22.98
2019-04-10T07:40:12.244Z,22.58
2019-04-10T07:42:42.823Z,24.50
2019-04-10T07:45:11.661Z,23.57
2019-04-10T07:47:40.357Z,21.80
2019-04-10T07:50:10.317Z,21.27
2019-04-10T07:52:39.253Z,22.20
2019-04-10T07:55:08.596Z,21.82
2019-04-10T07:57:38.398Z,20.15
2019-04-10T08:00:09.401Z,12.33
2019-04-10T08:02:42.727Z,12.05
2019-04-10T08:05:12.290Z,10.40
2019-04-10T08:07:41.051Z,14.33
2019-04-10T08:10:10.119Z,12.47
2019-04-10T08:12:46.857Z,13.10
2019-04-10T08:15:09.568Z,13.98
2019-04-10T08:17:39.024Z,14.10
2019-04-10T08:20:08.119Z,13.10
2019-04-10T08:22:37.174Z,12.20
2019-04-10T08:25:08.920Z,9.93
2019-04-10T08:27:38.486Z,10.23
2019-04-10T08:30:10.857Z,9.40
2019-04-10T08:32:51.429Z,9.53
2019-04-10T08:35:09.166Z,8.68
2019-04-10T08:37:39.041Z,11.88
2019-04-10T08:40:09.616Z,7.87
2019-04-10T08:42:40.202Z,13.08
2019-04-10T08:45:09.254Z,14.45
2019-04-10T08:47:38.012Z,15.13
2019-04-10T08:50:07.816Z,9.33
2019-04-10T08:52:37.041Z,9.15
2019-04-10T08:55:06.126Z,10.90
2019-04-10T08:57:35.903Z,11.12
2019-04-10T09:00:08.009Z,12.23
2019-04-10T09:02:39.765Z,15.03
2019-04-10T09:05:09.205Z,16.30
2019-04-10T09:07:38.294Z,15.80
2019-04-10T09:10:08.125Z,15.48
2019-04-10T09:12:36.860Z,14.80
2019-04-10T09:15:07.665Z,16.27
2019-04-10T09:17:37.513Z,15.78
2019-04-10T09:20:08.785Z,14.28
2019-04-10T09:23:05.818Z,15.40
2019-04-10T09:25:09.159Z,15.88
2019-04-10T09:27:37.946Z,15.38
2019-04-10T09:30:08.830Z,17.67
2019-04-10T09:32:37.588Z,18.27
2019-04-10T09:35:08.919Z,15.53
2019-04-10T09:37:38.139Z,17.05
2019-04-10T09:40:07.980Z,17.82
2019-04-10T09:42:36.902Z,15.98
2019-04-10T09:45:06.012Z,15.20
2019-04-10T09:47:34.870Z,16.60
2019-04-10T09:50:05.577Z,17.32
2019-04-10T09:52:35.496Z,18.52
2019-04-10T09:55:05.476Z,19.05
2019-04-10T09:57:34.623Z,19.07
2019-04-10T10:00:03.885Z,21.10
2019-04-10T10:02:33.461Z,19.67
2019-04-10T10:05:02.398Z,20.12
2019-04-10T10:07:31.168Z,20.62
2019-04-10T10:10:01.311Z,19.95
2019-04-10T10:12:30.279Z,20.30
2019-04-10T10:15:00.122Z,20.88
2019-04-10T10:17:28.845Z,19.48
2019-04-10T10:19:57.555Z,22.52
2019-04-10T10:22:27.646Z,20.92
2019-04-10T10:24:57.710Z,21.45
2019-04-10T10:27:26.809Z,22.58
2019-04-10T10:29:56.064Z,22.05
2019-04-10T10:32:24.888Z,20.85
2019-04-10T10:34:54.550Z,21.15
2019-04-10T10:37:24.894Z,20.20
2019-04-10T10:39:53.682Z,23.42
2019-04-10T10:42:23.514Z,24.43
2019-04-10T10:44:52.286Z,21.25
2019-04-10T10:47:22.160Z,20.65
2019-04-10T10:49:50.922Z,21.73
2019-04-10T10:52:19.740Z,22.65
2019-04-10T10:54:49.307Z,22.25
2019-04-10T10:57:19.154Z,21.37
2019-04-10T10:59:48.006Z,21.30
2019-04-10T11:02:17.089Z,19.62
2019-04-10T11:04:45.874Z,19.73
2019-04-10T11:07:14.630Z,21.60
2019-04-10T11:09:44.445Z,23.87
2019-04-10T11:12:13.592Z,21.80
2019-04-10T11:14:43.584Z,21.48
2019-04-10T11:17:13.457Z,20.55
2019-04-10T11:19:43.482Z,22.42
2019-04-10T11:22:14.055Z,19.82
2019-04-10T11:24:44.418Z,19.73
2019-04-10T11:27:14.306Z,19.30
2019-04-10T11:29:45.272Z,20.40
2019-04-10T11:32:14.397Z,20.43
2019-04-10T11:34:43.280Z,22.60
2019-04-10T11:37:23.389Z,20.62
2019-04-10T11:39:44.953Z,22.00
2019-04-10T11:42:12.761Z,20.88
2019-04-10T11:44:45.110Z,21.27
2019-04-10T11:47:12.487Z,23.38
2019-04-10T11:49:43.385Z,21.23
2019-04-10T11:52:14.509Z,21.10
2019-04-10T11:54:45.999Z,22.42
2019-04-10T11:57:13.302Z,21.00
2019-04-10T11:59:44.855Z,19.62
2019-04-10T12:02:14.436Z,18.98
2019-04-10T12:04:53.108Z,21.87
2019-04-10T12:07:53.039Z,21.62
2019-04-10T12:12:19.531Z,20.97
2019-04-10T12:14:48.194Z,19.73
2019-04-10T12:17:17.886Z,14.45
2019-04-10T12:19:46.771Z,14.15
2019-04-10T12:25:37.295Z,13.65
2019-04-10T12:28:06.051Z,14.65
2019-04-10T12:30:35.294Z,17.07
2019-04-10T12:33:05.293Z,16.87
2019-04-10T12:35:34.110Z,17.30
2019-04-10T12:38:07.006Z,17.40
2019-04-10T12:40:33.127Z,17.35
2019-04-10T12:43:02.896Z,18.35
2019-04-10T12:45:32.627Z,20.35
2019-04-10T12:48:02.132Z,22.98
2019-04-10T12:50:31.011Z,19.27
2019-04-10T12:52:59.656Z,18.07
2019-04-10T12:55:28.539Z,15.43
2019-04-10T12:58:06.495Z,13.58
2019-04-10T13:00:28.134Z,8.88
2019-04-10T13:02:57.128Z,8.58
2019-04-10T13:05:27.378Z,9.50
2019-04-10T13:08:06.414Z,6.00
2019-04-10T13:10:29.592Z,14.58
2019-04-10T13:12:58.395Z,19.48
2019-04-10T13:15:27.603Z,20.08
2019-04-10T13:17:57.508Z,20.00
2019-04-10T13:20:27.115Z,20.82
2019-04-10T13:22:56.270Z,26.57
2019-04-10T13:25:25.966Z,24.05
2019-04-10T13:27:54.875Z,21.12
2019-04-10T13:30:23.720Z,22.25
2019-04-10T13:32:52.688Z,24.50
2019-04-10T13:35:22.001Z,21.42
2019-04-10T13:37:50.719Z,21.33
2019-04-10T13:40:19.527Z,20.85
2019-04-10T13:42:48.157Z,19.05
2019-04-10T13:45:17.891Z,20.23
2019-04-10T13:47:47.075Z,18.27
2019-04-10T13:50:17.159Z,21.35
2019-04-10T13:52:50.471Z,19.32
2019-04-10T13:55:18.951Z,19.48
2019-04-10T13:57:47.790Z,17.17
2019-04-10T14:00:28.602Z,18.15
2019-04-10T14:02:58.241Z,18.20
2019-04-10T14:05:27.673Z,17.55
2019-04-10T14:07:56.392Z,17.42
2019-04-10T14:10:25.180Z,17.95
2019-04-10T14:12:53.982Z,19.32
2019-04-10T14:15:24.346Z,19.60
2019-04-10T14:17:54.144Z,17.80
2019-04-10T14:20:23.656Z,17.75
2019-04-10T14:23:12.566Z,18.37
2019-04-10T14:25:44.099Z,18.15
2019-04-10T14:28:13.119Z,19.80
2019-04-10T14:30:43.571Z,18.73
2019-04-10T14:33:12.958Z,15.28
2019-04-10T14:35:41.657Z,11.48
2019-04-10T14:38:10.696Z,9.80
2019-04-10T14:40:40.138Z,7.97
2019-04-10T14:43:08.920Z,7.47
2019-04-10T14:45:37.564Z,7.28
2019-04-10T14:48:07.796Z,6.92
2019-04-10T14:50:36.638Z,7.25
2019-04-10T14:53:05.618Z,6.25
2019-04-10T14:55:35.479Z,6.35
2019-04-10T14:58:05.530Z,6.47
2019-04-10T15:00:41.779Z,6.17
2019-04-10T15:03:10.501Z,6.28
2019-04-10T15:05:47.799Z,5.62
2019-04-10T15:08:09.799Z,5.87
2019-04-10T15:10:38.549Z,6.45
2019-04-10T15:13:13.139Z,6.85
2019-04-10T15:15:38.621Z,6.40
2019-04-10T15:18:08.741Z,7.45
2019-04-10T15:20:37.703Z,7.65
2019-04-10T15:23:07.751Z,7.97
2019-04-10T15:25:37.430Z,7.83
2019-04-10T15:28:06.458Z,7.00
2019-04-10T15:30:35.336Z,7.12
2019-04-10T15:33:04.586Z,7.65
2019-04-10T15:35:33.516Z,6.87
2019-04-10T15:38:02.353Z,6.30
2019-04-10T15:40:32.262Z,6.03
2019-04-10T15:43:01.000Z,6.78
2019-04-10T15:45:30.248Z,6.65
2019-04-10T15:48:00.511Z,5.80
2019-04-10T15:50:30.415Z,5.22
2019-04-10T15:52:59.952Z,5.83
2019-04-10T15:55:29.877Z,5.92
2019-04-10T15:58:01.215Z,6.60
2019-04-10T16:00:29.467Z,7.12
2019-04-10T16:02:58.254Z,5.15
2019-04-10T16:05:26.914Z,5.10
2019-04-10T16:07:55.566Z,5.15
2019-04-10T16:10:25.994Z,5.25
2019-04-10T16:12:55.527Z,4.83
2019-04-10T16:15:25.097Z,4.83
2019-04-10T16:17:58.838Z,5.05
2019-04-10T16:23:02.651Z,5.70
2019-04-10T16:25:31.355Z,6.17
2019-04-10T16:28:02.124Z,5.92
2019-04-10T16:30:30.987Z,6.12
2019-04-10T16:33:00.707Z,6.37
2019-04-10T16:35:29.639Z,7.28
2019-04-10T16:38:00.203Z,7.75
2019-04-10T16:40:29.942Z,7.00
2019-04-10T16:42:59.332Z,6.25
2019-04-10T16:45:28.688Z,6.47
2019-04-10T16:47:57.338Z,6.30
2019-04-10T16:50:26.074Z,6.30
2019-04-10T16:52:55.617Z,5.10
2019-04-10T16:55:24.896Z,4.75
2019-04-10T16:57:53.618Z,4.97
2019-04-10T17:00:23.606Z,4.70
2019-04-10T17:02:52.717Z,4.28
2019-04-10T17:05:22.628Z,4.42
2019-04-10T17:07:51.644Z,4.75
2019-04-10T17:10:24.429Z,5.78
2019-04-10T17:12:51.936Z,5.40
2019-04-10T17:15:20.891Z,6.67
2019-04-10T17:17:50.598Z,6.42
2019-04-10T17:20:20.347Z,6.83
2019-04-10T17:22:49.757Z,6.47
2019-04-10T17:25:18.626Z,6.10
2019-04-10T17:27:47.939Z,7.85
2019-04-10T17:30:17.800Z,6.80
2019-04-10T17:32:46.639Z,6.47
2019-04-10T17:35:15.923Z,6.10
2019-04-10T17:37:45.707Z,5.92
2019-04-10T17:40:27.415Z,4.92
2019-04-10T17:42:46.346Z,6.15
2019-04-10T17:45:15.945Z,5.90
2019-04-10T17:47:45.754Z,7.50
2019-04-10T17:50:18.407Z,5.75
2019-04-10T17:52:47.300Z,7.28
2019-04-10T17:55:15.974Z,6.42
2019-04-10T17:57:46.119Z,6.50
2019-04-10T18:00:22.961Z,6.67
2019-04-10T18:02:51.900Z,6.83
2019-04-10T18:05:20.553Z,6.95
2019-04-10T18:07:49.287Z,5.37
2019-04-10T18:10:18.363Z,5.28
2019-04-10T18:12:48.037Z,6.83
2019-04-10T18:15:16.870Z,5.80
2019-04-10T18:17:45.601Z,5.17
2019-04-10T18:20:14.446Z,5.47
2019-04-10T18:22:43.099Z,6.30
2019-04-10T18:25:11.978Z,6.22
2019-04-10T18:27:40.800Z,5.30
2019-04-10T18:30:09.963Z,5.87
2019-04-10T18:32:38.777Z,6.62
2019-04-10T18:35:08.896Z,6.50
2019-04-10T18:37:37.530Z,6.83
2019-04-10T18:40:07.505Z,6.00
2019-04-10T18:42:37.307Z,7.00
2019-04-10T18:45:09.683Z,6.55
2019-04-10T18:47:39.355Z,6.65
2019-04-10T18:50:08.430Z,7.00
2019-04-10T18:52:37.368Z,6.03
2019-04-10T18:55:06.431Z,7.20
2019-04-10T18:57:35.754Z,7.17
2019-04-10T19:00:10.147Z,6.45
2019-04-10T19:02:57.184Z,6.60
2019-04-10T19:05:33.975Z,6.95
2019-04-10T19:08:03.066Z,6.22
2019-04-10T19:10:32.650Z,6.20
2019-04-10T19:13:01.628Z,6.58
2019-04-10T19:15:32.831Z,7.00
2019-04-10T19:18:01.592Z,6.78
2019-04-10T19:20:31.319Z,7.15
2019-04-10T19:23:00.982Z,7.50
2019-04-10T19:25:30.250Z,7.70
2019-04-10T19:28:00.258Z,9.18
2019-04-10T19:30:37.300Z,9.48
2019-04-10T19:33:06.251Z,9.05
2019-04-10T19:35:35.127Z,9.95
2019-04-10T19:38:03.792Z,10.00
2019-04-10T19:40:32.578Z,9.90
2019-04-10T19:43:02.024Z,10.78
2019-04-10T19:45:32.119Z,10.53
2019-04-10T19:48:01.144Z,10.05
2019-04-10T19:50:30.229Z,10.60
2019-04-10T19:52:58.969Z,11.88
2019-04-10T19:55:27.632Z,10.30
2019-04-10T19:57:57.401Z,12.00
2019-04-10T20:00:28.397Z,11.85
2019-04-10T20:02:57.361Z,11.00
2019-04-10T20:05:26.089Z,10.85
2019-04-10T20:07:55.445Z,11.68
2019-04-10T20:10:24.024Z,11.05
2019-04-10T20:12:53.008Z,11.68
2019-04-10T20:15:22.530Z,12.20
2019-04-10T20:17:52.450Z,10.13
2019-04-10T20:20:21.485Z,11.55
2019-04-10T20:22:50.339Z,12.05
2019-04-10T20:25:19.143Z,13.20
2019-04-10T20:27:48.065Z,12.60
2019-04-10T20:30:18.130Z,13.10
2019-04-10T20:32:46.797Z,12.15
2019-04-10T20:35:16.160Z,12.28
2019-04-10T20:37:45.032Z,11.75
2019-04-10T20:40:13.930Z,11.50
2019-04-10T20:42:42.885Z,12.35
2019-04-10T20:45:11.849Z,12.18
2019-04-10T20:47:41.320Z,11.50
2019-04-10T20:50:10.324Z,10.43
2019-04-10T20:52:40.812Z,9.88
2019-04-10T20:55:09.434Z,10.78
2019-04-10T20:57:38.118Z,10.72
2019-04-10T21:00:09.523Z,11.73
2019-04-10T21:02:38.354Z,10.72
2019-04-10T21:05:09.679Z,12.20
2019-04-10T21:07:37.743Z,11.53
2019-04-10T21:10:08.536Z,11.22
2019-04-10T21:12:37.315Z,11.43
2019-04-10T21:15:06.722Z,10.63
2019-04-10T21:17:35.390Z,10.45
2019-04-10T21:20:07.896Z,10.35
2019-04-10T21:22:36.752Z,11.48
2019-04-10T21:25:08.144Z,10.63
2019-04-10T21:27:37.632Z,11.20
2019-04-10T21:30:11.719Z,10.43
2019-04-10T21:32:44.571Z,12.20
2019-04-10T21:35:18.717Z,11.65
2019-04-10T21:37:48.572Z,12.05
2019-04-10T21:40:18.565Z,10.88
2019-04-10T21:42:47.593Z,13.60
2019-04-10T21:45:16.484Z,13.68
2019-04-10T21:47:45.993Z,13.62
2019-04-10T21:50:15.227Z,13.53
2019-04-10T21:52:43.922Z,13.22
2019-04-10T21:55:12.905Z,15.35
2019-04-10T21:57:42.548Z,15.23
2019-04-10T22:00:12.342Z,14.73
2019-04-10T22:02:41.929Z,15.50
2019-04-10T22:05:12.488Z,16.23
2019-04-10T22:07:48.437Z,14.78
2019-04-10T22:10:24.511Z,16.05
2019-04-10T22:12:53.247Z,15.72
2019-04-10T22:15:24.608Z,14.90
2019-04-10T22:17:53.463Z,14.03
2019-04-10T22:20:22.200Z,14.18
2019-04-10T22:22:51.385Z,14.93
2019-04-10T22:25:21.485Z,16.05
2019-04-10T22:27:50.262Z,14.63
2019-04-10T22:30:19.130Z,13.80
2019-04-10T22:32:47.790Z,15.63
2019-04-10T22:35:17.448Z,16.82
2019-04-10T22:37:46.372Z,15.23
2019-04-10T22:40:15.343Z,16.48
2019-04-10T22:42:46.755Z,17.12
2019-04-10T22:45:27.954Z,17.27
2019-04-10T22:47:58.341Z,16.42
2019-04-10T22:50:27.555Z,14.87
2019-04-10T22:52:57.048Z,17.15
2019-04-10T22:55:26.086Z,16.32
2019-04-10T22:57:54.850Z,17.57
2019-04-10T23:00:28.171Z,16.45
2019-04-10T23:02:57.314Z,14.65
2019-04-10T23:05:26.743Z,17.77
2019-04-10T23:07:55.661Z,15.88
2019-04-10T23:10:24.781Z,17.07
2019-04-10T23:13:00.815Z,16.32
2019-04-10T23:15:25.132Z,17.55
2019-04-10T23:17:54.137Z,17.98
2019-04-10T23:20:23.712Z,17.65
2019-04-10T23:22:52.641Z,19.50
2019-04-10T23:25:22.392Z,18.32
2019-04-10T23:27:53.452Z,18.32
2019-04-10T23:30:21.604Z,19.05
2019-04-10T23:32:51.286Z,19.40
2019-04-10T23:35:21.181Z,18.92
2019-04-10T23:37:51.057Z,19.12
2019-04-10T23:40:20.889Z,18.55
2019-04-10T23:43:02.951Z,18.82
2019-04-10T23:45:20.276Z,20.70
2019-04-10T23:47:48.939Z,21.45
2019-04-10T23:50:18.556Z,19.05
2019-04-10T23:55:51.109Z,22.45
2019-04-10T23:58:19.936Z,21.42
